Terminal Aerodrome Forecast
Issued by NWS Burlington, VT

Current Version | Previous Version | Text Only | Print | Product List | Glossary On
Versions: 1 2 3 4 5 6 7 8 9 10 11 12 13 14 15 16 17 18 19
000 FTUS41 KBTV 012300 TAFBTV TAF KBTV 012320Z 0200/0224 32004KT P6SM BKN045 FM020300 35002KT P6SM OVC025 FM020700 00000KT P6SM OVC008 FM021000 00000KT P6SM OVC040 FM021500 17005KT P6SM BKN040 FM021800 24005KT P6SM SCT250=

USA.gov is the U.S. government's official web portal to all federal, state and local government web resources and services.